Time;durP1;ratioP1;P1;durP2;ratioP2;P2;SDS_P1;SDS_P2;PMS_P1;PMS_P2;Temp;Humidity;BMP_temperature;BMP_pressure;BME280_temperature;BME280_humidity;BME280_pressure;Samples;Min_cycle;Max_cycle;Signal;HPM_P1;HPM_P2
2022/06/28 00:01:51;;;;;;;2.80;2.23;;;;;;;17.21;100.00;155784.16;5015215;28;20531;-82
2022/06/28 00:04:18;;;;;;;2.30;1.63;;;;;;;17.24;100.00;155790.66;5004370;28;20512;-81
2022/06/28 00:06:45;;;;;;;2.47;2.27;;;;;;;17.21;100.00;155784.16;5015486;28;20449;-81
2022/06/28 00:09:14;;;;;;;2.03;1.83;;;;;;;17.18;100.00;155776.41;5031055;28;20464;-81
2022/06/28 00:11:41;;;;;;;13.10;2.13;;;;;;;17.23;100.00;155788.09;5017949;28;20468;-82
2022/06/28 00:16:04;;;;;;;2.80;2.20;;;;;;;17.26;100.00;155795.91;5019602;28;20437;-82
2022/06/28 00:16:54;;;;;;;2.17;1.97;;;;;;;17.25;100.00;155794.59;5031751;28;20975;-81
2022/06/28 00:19:21;;;;;;;3.70;1.90;;;;;;;17.26;100.00;155795.91;5033555;28;20485;-81
2022/06/28 00:21:48;;;;;;;2.13;1.90;;;;;;;17.24;100.00;155790.66;5026078;28;20228;-81
2022/06/28 00:24:16;;;;;;;2.13;1.93;;;;;;;17.30;100.00;155806.28;4998611;28;20445;-82
2022/06/28 00:26:43;;;;;;;2.20;2.00;;;;;;;17.32;100.00;155811.50;5023383;28;20850;-81
2022/06/28 00:29:10;;;;;;;1.80;1.70;;;;;;;17.26;100.00;155797.16;5013892;28;20483;-81
2022/06/28 00:31:37;;;;;;;4.73;1.80;;;;;;;17.26;100.00;155795.91;5032599;28;20498;-81
2022/06/28 00:34:04;;;;;;;2.23;2.03;;;;;;;17.26;100.00;155795.91;5018010;28;20555;-81
2022/06/28 00:36:32;;;;;;;2.00;1.73;;;;;;;17.22;100.00;155785.47;5015210;28;20567;-81
2022/06/28 00:39:00;;;;;;;1.97;1.60;;;;;;;17.22;100.00;155786.78;5031354;28;20456;-81
2022/06/28 00:41:28;;;;;;;1.63;1.53;;;;;;;17.23;100.00;155789.41;5032396;28;20461;-81
2022/06/28 00:43:56;;;;;;;3.60;2.07;;;;;;;17.22;100.00;155785.47;5015357;28;20460;-81
2022/06/28 00:46:22;;;;;;;2.57;2.03;;;;;;;17.17;100.00;155772.47;5012858;28;20654;-81
2022/06/28 00:48:49;;;;;;;4.73;1.67;;;;;;;17.13;100.00;155763.34;4996557;28;20566;-82
2022/06/28 00:51:17;;;;;;;1.93;1.60;;;;;;;17.14;100.00;155765.97;5028074;28;20463;-81
2022/06/28 00:53:44;;;;;;;1.80;1.20;;;;;;;17.04;100.00;155739.94;5027013;28;20449;-81
2022/06/28 00:56:11;;;;;;;4.93;1.70;;;;;;;17.01;100.00;155733.44;5020511;28;20849;-81
2022/06/28 00:58:39;;;;;;;2.03;1.60;;;;;;;16.94;100.00;155715.19;5008580;28;20592;-81
2022/06/28 01:01:06;;;;;;;2.20;2.00;;;;;;;16.92;100.00;155708.69;5029324;28;20445;-81
2022/06/28 01:03:32;;;;;;;1.63;1.53;;;;;;;16.91;100.00;155707.44;5011362;28;20453;-81
2022/06/28 01:05:59;;;;;;;1.80;1.70;;;;;;;16.89;100.00;155702.19;5028295;28;20882;-81
2022/06/28 01:08:28;;;;;;;2.50;1.90;;;;;;;16.85;100.00;155691.81;5011446;28;20465;-81
2022/06/28 01:10:57;;;;;;;1.90;1.67;;;;;;;16.80;100.00;155678.78;5003787;28;20491;-81
2022/06/28 01:13:26;;;;;;;2.63;2.10;;;;;;;16.78;100.00;155673.59;5008233;28;20551;-81
2022/06/28 01:15:54;;;;;;;2.43;1.60;;;;;;;16.72;100.00;155657.97;5015490;28;20441;-81
2022/06/28 01:18:21;;;;;;;2.07;1.70;;;;;;;16.77;100.00;155670.97;4997459;28;20452;-81
2022/06/28 01:20:49;;;;;;;2.33;1.63;;;;;;;16.70;100.00;155651.47;5011157;28;20508;-81
2022/06/28 01:23:26;;;;;;;1.70;1.60;;;;;;;16.74;100.00;155663.16;5012464;28;20455;-81
2022/06/28 01:26:04;;;;;;;2.33;2.00;;;;;;;16.76;100.00;155668.38;5011543;28;20472;-81
2022/06/28 01:28:38;;;;;;;1.87;1.77;;;;;;;16.79;100.00;155674.88;4993975;28;20472;-82
2022/06/28 01:31:17;;;;;;;2.03;1.50;;;;;;;16.80;100.00;155678.78;5025323;28;20449;-82
2022/06/28 01:33:45;;;;;;;2.43;1.60;;;;;;;16.77;100.00;155670.97;5014896;28;20479;-81
2022/06/28 01:36:15;;;;;;;1.73;1.63;;;;;;;16.80;100.00;155678.78;5010510;28;20523;-81
2022/06/28 01:38:43;;;;;;;3.10;2.03;;;;;;;16.80;100.00;155678.78;5010712;28;20461;-81
2022/06/28 01:41:32;;;;;;;2.67;1.97;;;;;;;16.76;100.00;155668.38;5012625;28;20545;-81
2022/06/28 01:44:03;;;;;;;4.00;2.00;;;;;;;16.72;100.00;155657.97;4995958;28;20464;-81
2022/06/28 01:46:31;;;;;;;1.70;1.60;;;;;;;16.75;100.00;155664.47;5027092;28;20453;-82
2022/06/28 01:49:04;;;;;;;5.80;2.20;;;;;;;16.73;100.00;155660.53;5027448;28;20948;-81
2022/06/28 01:51:32;;;;;;;2.47;2.07;;;;;;;16.71;100.00;155654.03;5010843;28;20519;-81
2022/06/28 01:54:00;;;;;;;1.93;1.73;;;;;;;16.71;100.00;155654.03;5012215;28;20783;-81
2022/06/28 01:56:35;;;;;;;2.07;1.87;;;;;;;16.71;100.00;155654.03;4995582;28;20463;-81
2022/06/28 01:59:18;;;;;;;3.13;1.90;;;;;;;16.68;100.00;155647.53;5010714;28;20864;-81
2022/06/28 02:02:11;;;;;;;3.10;1.70;;;;;;;16.65;100.00;155639.78;5008449;28;20457;-81
2022/06/28 02:05:07;;;;;;;2.50;2.10;;;;;;;16.64;100.00;155637.16;5026864;28;20857;-81
2022/06/28 02:07:34;;;;;;;2.30;2.00;;;;;;;16.66;100.00;155642.34;4994648;28;20488;-80
2022/06/28 02:10:03;;;;;;;2.93;2.10;;;;;;;16.65;100.00;155639.78;4986086;28;20454;-81
2022/06/28 02:12:29;;;;;;;2.30;2.10;;;;;;;16.63;100.00;155634.53;4994080;28;21015;-82
2022/06/28 02:14:57;;;;;;;2.30;2.10;;;;;;;16.64;100.00;155635.84;5019791;28;20951;-81
2022/06/28 02:17:24;;;;;;;1.70;1.60;;;;;;;16.64;100.00;155635.84;5011860;28;20433;-81
2022/06/28 02:19:51;;;;;;;3.50;2.20;;;;;;;16.58;100.00;155621.53;5010829;28;20456;-81
2022/06/28 02:22:18;;;;;;;3.23;1.90;;;;;;;16.57;100.00;155617.66;5013202;28;20448;-81
2022/06/28 02:24:45;;;;;;;2.67;2.30;;;;;;;16.54;100.00;155609.84;5009989;28;20514;-75
2022/06/28 02:27:13;;;;;;;1.80;1.70;;;;;;;16.52;100.00;155604.59;5027234;28;20931;-75
2022/06/28 02:29:40;;;;;;;3.23;2.03;;;;;;;16.48;100.00;155595.47;4994777;28;20546;-75
2022/06/28 02:32:07;;;;;;;2.77;2.30;;;;;;;16.42;100.00;155579.88;5002676;28;20487;-75
2022/06/28 02:42:49;;;;;;;2.40;2.20;;;;;;;16.25;100.00;155536.97;5027272;28;21006;-74
2022/06/28 02:45:15;;;;;;;3.00;2.67;;;;;;;16.22;100.00;155527.84;5026305;28;20975;-75
2022/06/28 02:47:42;;;;;;;4.30;2.00;;;;;;;16.17;100.00;155514.88;4994707;28;20439;-75
2022/06/28 02:50:10;;;;;;;3.53;2.47;;;;;;;16.12;100.00;155501.88;5026396;28;21015;-74
2022/06/28 02:52:37;;;;;;;3.17;2.20;;;;;;;16.10;100.00;155496.63;4994471;28;20468;-74
2022/06/28 02:55:06;;;;;;;2.30;2.10;;;;;;;16.08;100.00;155491.44;4992787;28;20955;-74
2022/06/28 02:57:33;;;;;;;2.47;2.20;;;;;;;16.06;100.00;155487.56;4993953;28;20437;-74
2022/06/28 03:00:02;;;;;;;2.67;2.47;;;;;;;16.04;100.00;155482.38;5026814;28;20428;-74
2022/06/28 03:02:29;;;;;;;2.83;2.27;;;;;;;15.99;100.00;155469.31;5012186;28;20431;-74
2022/06/28 03:04:56;;;;;;;2.37;2.17;;;;;;;16.00;100.00;155471.94;5010586;28;20461;-74
2022/06/28 03:07:23;;;;;;;3.27;2.97;;;;;;;16.04;100.00;155481.06;5010569;28;20832;-74
2022/06/28 03:09:50;;;;;;;2.43;2.23;;;;;;;15.98;100.00;155466.75;4996365;28;20476;-75
2022/06/28 03:12:17;;;;;;;3.07;2.77;;;;;;;16.00;100.00;155470.63;5015852;28;20472;-75
2022/06/28 03:14:44;;;;;;;2.80;2.60;;;;;;;15.95;100.00;155457.63;5012499;28;20531;-75
2022/06/28 03:17:12;;;;;;;2.30;2.10;;;;;;;15.90;100.00;155444.63;5010702;28;20480;-75
2022/06/28 03:19:38;;;;;;;2.17;1.97;;;;;;;15.84;100.00;155431.63;5024068;28;20489;-75
2022/06/28 03:22:05;;;;;;;2.20;2.00;;;;;;;15.81;100.00;155422.53;5026791;28;20921;-74
2022/06/28 03:24:32;;;;;;;2.70;2.50;;;;;;;15.89;100.00;155442.00;4993577;28;20507;-75
2022/06/28 03:26:59;;;;;;;3.27;2.60;;;;;;;15.89;100.00;155442.00;5017405;28;20543;-74
2022/06/28 03:29:26;;;;;;;2.70;2.50;;;;;;;15.89;100.00;155442.00;5026661;28;20439;-74
2022/06/28 03:31:53;;;;;;;2.60;2.30;;;;;;;15.89;100.00;155442.00;4995245;28;20445;-75
2022/06/28 03:34:21;;;;;;;3.83;2.90;;;;;;;15.91;100.00;155447.25;5006173;28;20453;-75
2022/06/28 03:36:48;;;;;;;2.50;2.30;;;;;;;15.90;100.00;155445.94;5023783;28;20511;-74
2022/06/28 03:39:36;;;;;;;2.73;2.47;;;;;;;15.92;100.00;155451.13;5010046;28;20851;-75
2022/06/28 03:42:03;;;;;;;2.90;2.60;;;;;;;15.93;100.00;155453.75;4992955;28;20535;-75
2022/06/28 03:44:31;;;;;;;2.80;2.57;;;;;;;15.97;100.00;155462.81;4992851;28;20546;-75
2022/06/28 03:47:00;;;;;;;2.77;2.57;;;;;;;15.98;100.00;155465.44;4991888;28;20820;-75
2022/06/28 03:49:35;;;;;;;3.33;2.40;;;;;;;15.98;100.00;155466.75;5026540;28;20810;-75
2022/06/28 03:52:14;;;;;;;4.20;2.93;;;;;;;16.02;100.00;155475.88;4993622;28;20444;-75
2022/06/28 03:55:08;;;;;;;2.80;2.37;;;;;;;16.04;100.00;155481.06;5020412;28;20789;-75
2022/06/28 03:57:41;;;;;;;2.90;2.70;;;;;;;16.06;100.00;155486.25;5025563;28;20463;-74
2022/06/28 04:00:11;;;;;;;3.00;2.70;;;;;;;16.06;100.00;155487.56;5009734;28;20456;-74
2022/06/28 04:02:42;;;;;;;3.23;2.93;;;;;;;16.05;100.00;155484.94;4992834;28;20486;-75
2022/06/28 04:05:17;;;;;;;2.77;2.57;;;;;;;16.07;100.00;155488.88;4992798;28;20502;-75
2022/06/28 04:07:44;;;;;;;3.23;2.93;;;;;;;16.09;100.00;155494.06;5011159;28;20808;-74
2022/06/28 04:10:11;;;;;;;3.07;2.77;;;;;;;16.10;100.00;155496.63;4993368;28;20487;-74
2022/06/28 04:12:39;;;;;;;3.63;2.80;;;;;;;16.09;100.00;155494.06;5008834;28;20527;-74
2022/06/28 04:15:18;;;;;;;3.43;2.80;;;;;;;16.10;100.00;155496.63;5004041;28;20503;-75
2022/06/28 04:17:50;;;;;;;2.53;2.33;;;;;;;16.12;100.00;155501.88;5007408;28;20456;-74
2022/06/28 04:20:33;;;;;;;2.93;2.63;;;;;;;16.15;100.00;155510.94;5009851;28;20535;-75
2022/06/28 04:23:03;;;;;;;3.80;3.40;;;;;;;16.14;100.00;155508.38;4996731;28;20466;-82
2022/06/28 04:25:32;;;;;;;2.90;2.60;;;;;;;16.15;100.00;155509.66;5012895;28;20535;-82
2022/06/28 04:28:09;;;;;;;2.80;2.60;;;;;;;16.15;100.00;155509.66;4997294;28;20488;-82
2022/06/28 04:30:37;;;;;;;3.90;3.23;;;;;;;16.20;100.00;155522.66;4996840;28;20810;-82
2022/06/28 04:33:04;;;;;;;3.23;2.93;;;;;;;16.20;100.00;155522.66;4998772;28;20851;-83
2022/06/28 04:35:35;;;;;;;3.77;3.47;;;;;;;16.16;100.00;155512.25;5013214;28;20515;-82
2022/06/28 04:38:02;;;;;;;5.60;3.53;;;;;;;16.20;100.00;155523.94;5004602;28;20480;-82
2022/06/28 04:40:42;;;;;;;3.87;3.47;;;;;;;16.22;100.00;155529.16;5010360;28;20456;-85
2022/06/28 04:43:23;;;;;;;3.77;3.47;;;;;;;16.26;100.00;155539.56;4994041;28;20476;-84
2022/06/28 04:45:49;;;;;;;3.83;3.53;;;;;;;16.30;100.00;155548.66;4997163;28;20458;-84
2022/06/28 04:48:17;;;;;;;3.30;3.00;;;;;;;16.33;100.00;155556.47;5011682;28;20514;-82
2022/06/28 04:50:45;;;;;;;3.63;3.33;;;;;;;16.35;100.00;155561.66;4996745;28;20436;-82
2022/06/28 04:53:15;;;;;;;4.30;3.03;;;;;;;16.39;100.00;155573.34;5017647;28;20478;-83
2022/06/28 04:55:46;;;;;;;3.27;2.70;;;;;;;16.38;100.00;155570.78;4999764;28;20882;-83
2022/06/28 04:58:13;;;;;;;4.27;3.23;;;;;;;16.38;100.00;155569.47;5010803;28;20471;-83
2022/06/28 05:00:40;;;;;;;3.60;3.30;;;;;;;16.35;100.00;155561.66;5024995;28;20973;-83
2022/06/28 05:03:13;;;;;;;3.50;3.20;;;;;;;16.31;100.00;155552.56;5028812;28;20827;-83
2022/06/28 05:06:00;;;;;;;3.20;2.87;;;;;;;16.38;100.00;155569.47;5028555;28;20457;-83
2022/06/28 05:08:27;;;;;;;3.87;3.47;;;;;;;16.41;100.00;155578.56;5018450;28;20433;-82
2022/06/28 05:11:02;;;;;;;3.63;3.23;;;;;;;16.44;100.00;155585.09;5042777;28;20413;-82
2022/06/28 05:13:35;;;;;;;4.13;3.73;;;;;;;16.43;100.00;155582.47;5029058;28;20539;-83
2022/06/28 05:16:02;;;;;;;4.47;3.90;;;;;;;16.40;100.00;155575.97;4993918;28;20459;-83
2022/06/28 05:18:29;;;;;;;4.33;3.57;;;;;;;16.43;100.00;155582.47;5011732;28;20506;-83
2022/06/28 05:20:57;;;;;;;4.90;4.10;;;;;;;16.45;100.00;155587.66;5014322;28;20476;-83
2022/06/28 05:23:25;;;;;;;5.37;4.87;;;;;;;16.44;100.00;155585.09;4995113;28;20459;-83
2022/06/28 05:26:01;;;;;;;6.00;5.50;;;;;;;16.47;100.00;155591.59;5028790;28;20859;-83
2022/06/28 05:28:28;;;;;;;6.73;5.30;;;;;;;16.44;100.00;155585.09;5010977;28;20488;-83
2022/06/28 05:30:55;;;;;;;6.50;5.90;;;;;;;16.48;100.00;155595.47;4994689;28;20468;-83
2022/06/28 05:33:22;;;;;;;6.67;6.07;;;;;;;16.51;100.00;155601.97;5028166;28;20579;-83
2022/06/28 05:35:49;;;;;;;6.73;6.20;;;;;;;16.56;100.00;155615.03;5013219;28;21090;-83
2022/06/28 05:38:16;;;;;;;7.53;6.73;;;;;;;16.57;100.00;155618.97;5024022;28;20460;-83
2022/06/28 05:40:46;;;;;;;7.60;6.90;;;;;;;16.56;100.00;155615.03;5008683;28;20503;-82
2022/06/28 05:43:13;;;;;;;7.70;7.00;;;;;;;16.66;100.00;155642.34;4993300;28;20459;-82
2022/06/28 05:45:40;;;;;;;9.70;8.80;;;;;;;16.63;100.00;155633.22;5008432;28;20456;-83
2022/06/28 05:48:07;;;;;;;11.57;10.03;;;;;;;16.62;100.00;155631.97;4993319;28;20460;-83
2022/06/28 05:50:34;;;;;;;10.73;8.63;;;;;;;16.71;100.00;155654.03;4998487;28;20552;-82
2022/06/28 05:53:01;;;;;;;12.57;10.10;;;;;;;16.72;100.00;155656.66;5022928;28;20480;-83
2022/06/28 05:55:29;;;;;;;10.20;9.20;;;;;;;16.91;100.00;155707.44;4981159;28;20952;-83
2022/06/28 05:57:57;;;;;;;10.77;9.73;;;;;;;17.00;100.00;155730.81;5022024;28;20998;-83
2022/06/28 06:00:24;;;;;;;11.03;8.90;;;;;;;17.10;100.00;155754.25;5022736;28;20834;-83
2022/06/28 06:02:51;;;;;;;10.40;9.40;;;;;;;17.15;100.00;155767.28;5008409;28;20923;-82
2022/06/28 06:05:18;;;;;;;10.50;9.33;;;;;;;17.08;100.00;155749.06;5010594;28;20484;-83
2022/06/28 06:07:45;;;;;;;10.53;9.10;;;;;;;17.15;100.00;155768.59;5010174;28;20444;-82
2022/06/28 06:10:11;;;;;;;12.10;8.80;;;;;;;17.00;100.00;155729.50;4993118;28;20448;-82
2022/06/28 06:12:38;;;;;;;11.47;8.80;;;;;;;17.05;100.00;155743.81;5010437;28;20539;-82
2022/06/28 06:15:08;;;;;;;9.93;8.87;;;;;;;17.03;100.00;155738.63;5007253;28;20530;-82
2022/06/28 06:17:35;;;;;;;9.97;8.70;;;;;;;16.96;100.00;155720.44;5024785;28;20456;-82
2022/06/28 06:20:02;;;;;;;9.93;8.93;;;;;;;16.98;100.00;155725.63;5009645;28;20452;-83
2022/06/28 06:22:29;;;;;;;10.10;8.53;;;;;;;17.12;100.00;155759.47;5007187;28;20477;-82
2022/06/28 06:24:56;;;;;;;10.47;9.43;;;;;;;17.12;100.00;155760.78;4990485;28;20452;-83
2022/06/28 06:27:28;;;;;;;10.10;9.10;;;;;;;17.26;100.00;155797.16;4992096;28;20424;-82
2022/06/28 06:29:55;;;;;;;9.37;8.47;;;;;;;17.28;100.00;155801.09;5008625;28;20457;-82
2022/06/28 06:32:35;;;;;;;9.33;8.00;;;;;;;17.37;100.00;155824.50;4994243;28;20663;-83
2022/06/28 06:35:20;;;;;;;9.40;8.50;;;;;;;17.47;100.00;155850.56;5007773;28;20487;-82
2022/06/28 06:37:47;;;;;;;9.80;8.73;;;;;;;17.52;100.00;155864.91;5009460;28;20503;-82
2022/06/28 06:40:14;;;;;;;11.83;8.57;;;;;;;17.36;100.00;155821.94;5008668;28;20464;-83
2022/06/28 06:42:41;;;;;;;11.70;9.03;;;;;;;17.27;100.00;155798.47;5011017;28;20429;-83
2022/06/28 06:45:13;;;;;;;10.40;9.40;;;;;;;17.21;100.00;155782.91;4990580;28;20800;-83
2022/06/28 06:47:41;;;;;;;10.60;9.60;;;;;;;17.15;100.00;155768.59;5000605;28;20453;-83
2022/06/28 06:50:09;;;;;;;9.10;8.20;;;;;;;17.29;100.00;155805.00;4987608;28;20560;-83
2022/06/28 06:52:36;;;;;;;10.60;9.17;;;;;;;17.32;100.00;155811.50;5017355;28;20463;-83
2022/06/28 06:55:05;;;;;;;12.10;9.47;;;;;;;17.33;100.00;155815.44;5016291;28;20460;-83
2022/06/28 06:57:32;;;;;;;11.00;9.90;;;;;;;17.17;100.00;155772.47;5009924;28;20464;-83
2022/06/28 06:59:59;;;;;;;10.60;9.50;;;;;;;17.19;100.00;155778.97;5009482;28;20441;-76
2022/06/28 07:02:26;;;;;;;11.27;10.17;;;;;;;17.18;100.00;155776.41;5023508;28;20461;-76
2022/06/28 07:04:57;;;;;;;11.67;10.47;;;;;;;17.12;100.00;155760.78;5024398;28;20812;-75
2022/06/28 07:07:25;;;;;;;13.30;11.90;;;;;;;17.08;100.00;155749.06;4990828;28;20437;-76
2022/06/28 07:09:52;;;;;;;14.83;13.30;;;;;;;16.92;100.00;155710.00;5021935;28;20468;-76
2022/06/28 07:12:19;;;;;;;14.33;12.13;;;;;;;16.87;100.00;155697.00;5010610;28;20830;-76
2022/06/28 07:14:45;;;;;;;13.07;11.83;;;;;;;16.83;100.00;155686.59;5026085;28;20870;-76
2022/06/28 07:17:16;;;;;;;12.63;11.33;;;;;;;16.80;100.00;155678.78;5008572;28;20542;-76
2022/06/28 07:19:43;;;;;;;13.83;12.50;;;;;;;16.75;100.00;155665.78;5014221;28;20445;-76
2022/06/28 07:22:11;;;;;;;12.77;11.50;;;;;;;16.74;100.00;155661.88;5020780;28;20543;-76
2022/06/28 07:24:40;;;;;;;12.33;11.07;;;;;;;16.66;100.00;155642.34;4993150;28;20951;-76
2022/06/28 07:27:09;;;;;;;13.20;11.93;;;;;;;16.68;100.00;155647.53;4993262;28;20694;-76
2022/06/28 07:29:36;;;;;;;12.27;10.97;;;;;;;16.71;100.00;155655.34;5008714;28;20848;-76
2022/06/28 07:32:04;;;;;;;12.07;10.97;;;;;;;16.76;100.00;155668.38;4993840;28;20445;-77
2022/06/28 07:34:31;;;;;;;13.00;11.80;;;;;;;16.81;100.00;155681.38;4992581;28;20530;-76
2022/06/28 07:36:58;;;;;;;12.33;11.13;;;;;;;16.81;100.00;155681.38;5010279;28;20480;-76
2022/06/28 07:39:27;;;;;;;13.67;11.43;;;;;;;16.95;100.00;155717.81;5010197;28;20460;-76
2022/06/28 07:42:12;;;;;;;12.20;10.90;;;;;;;17.09;100.00;155751.63;5011956;28;20426;-76
2022/06/28 07:45:02;;;;;;;13.73;12.37;;;;;;;17.19;100.00;155777.66;5004316;28;20540;-76
2022/06/28 07:47:29;;;;;;;13.00;11.00;;;;;;;17.31;100.00;155808.91;5025960;28;20952;-76
2022/06/28 07:52:40;;;;;;;10.27;9.27;;;;;;;17.67;100.00;155901.38;4979880;28;20432;-76
2022/06/28 07:55:12;;;;;;;12.80;11.40;;;;;;;17.76;100.00;155924.81;5002952;28;20971;-76
2022/06/28 07:58:01;;;;;;;11.73;10.53;;;;;;;18.02;100.00;155993.81;4995915;28;20485;-76
2022/06/28 08:00:30;;;;;;;11.63;10.37;;;;;;;18.21;100.00;156043.28;5002457;28;20452;-76
2022/06/28 08:03:17;;;;;;;11.70;10.20;;;;;;;18.40;100.00;156091.47;5012267;28;20547;-76
2022/06/28 08:05:44;;;;;;;10.23;9.33;;;;;;;18.69;100.00;156165.81;5029076;28;20828;-76
2022/06/28 08:08:11;;;;;;;9.57;8.67;;;;;;;18.90;100.00;156219.22;4996783;28;20436;-76
2022/06/28 08:10:39;;;;;;;10.40;9.13;;;;;;;18.98;99.06;156241.38;5008569;28;20471;-76
2022/06/28 08:13:09;;;;;;;12.00;8.87;;;;;;;19.19;99.07;156296.13;5028291;28;20456;-76
2022/06/28 08:15:35;;;;;;;11.60;9.27;;;;;;;19.51;95.36;156376.97;5029245;28;20974;-75
2022/06/28 08:18:02;;;;;;;10.20;9.30;;;;;;;19.51;93.32;156376.97;5029427;28;20449;-76
2022/06/28 08:20:31;;;;;;;8.60;7.80;;;;;;;19.55;92.51;156387.38;5010874;28;20451;-76
2022/06/28 08:22:58;;;;;;;10.00;9.00;;;;;;;19.82;96.37;156457.78;5006104;28;20460;-76
2022/06/28 08:25:25;;;;;;;10.57;9.47;;;;;;;19.92;91.63;156483.84;5014251;28;20425;-76
2022/06/28 08:27:53;;;;;;;9.13;8.33;;;;;;;20.14;87.65;156539.94;5028894;28;20561;-76
2022/06/28 08:30:21;;;;;;;8.17;7.40;;;;;;;20.47;88.26;156626.03;5014053;28;20928;-73
2022/06/28 08:32:47;;;;;;;7.83;7.03;;;;;;;20.83;87.15;156720.00;5013214;28;20431;-76
2022/06/28 08:35:14;;;;;;;7.33;6.70;;;;;;;21.03;87.51;156770.88;5011325;28;20480;-76
2022/06/28 08:37:41;;;;;;;8.33;7.53;;;;;;;20.86;88.19;156726.53;5013524;28;20452;-76
2022/06/28 08:40:09;;;;;;;13.60;11.43;;;;;;;21.19;84.13;156812.69;5012922;28;20440;-76
2022/06/28 08:42:39;;;;;;;9.40;7.40;;;;;;;21.42;83.17;156872.72;5009367;28;20470;-76
2022/06/28 08:45:08;;;;;;;7.90;6.70;;;;;;;21.98;84.20;157016.38;5013941;28;20967;-76
2022/06/28 08:47:36;;;;;;;8.33;6.60;;;;;;;22.42;79.69;157131.31;5013382;28;20453;-76
2022/06/28 08:50:06;;;;;;;7.17;6.57;;;;;;;22.10;80.82;157047.72;5029043;28;20441;-76
2022/06/28 08:52:34;;;;;;;8.90;8.00;;;;;;;22.32;79.50;157105.16;5013100;28;20982;-76
2022/06/28 08:55:01;;;;;;;7.30;6.70;;;;;;;22.49;77.71;157148.28;5029481;28;20559;-76
2022/06/28 08:57:30;;;;;;;6.40;5.80;;;;;;;22.24;77.19;157084.31;5012457;28;20421;-76
2022/06/28 08:59:58;;;;;;;7.13;6.43;;;;;;;21.79;77.16;156969.31;5028128;28;20816;-76
2022/06/28 09:02:26;;;;;;;7.10;6.50;;;;;;;21.28;79.17;156834.88;5010769;28;20456;-76
2022/06/28 09:04:53;;;;;;;7.43;6.60;;;;;;;20.94;81.37;156747.41;5013909;28;20491;-76
2022/06/28 09:07:20;;;;;;;6.93;6.33;;;;;;;20.96;80.69;156752.63;5013271;28;20912;-76
2022/06/28 09:09:47;;;;;;;7.30;6.60;;;;;;;21.00;82.18;156763.03;5012587;28;20449;-76
2022/06/28 09:12:14;;;;;;;5.90;5.40;;;;;;;21.36;81.44;156857.09;5006699;28;20528;-76
2022/06/28 09:14:41;;;;;;;7.07;6.37;;;;;;;21.45;79.35;156880.53;5008565;28;20484;-76
2022/06/28 09:17:22;;;;;;;6.00;5.50;;;;;;;21.47;78.33;156884.50;5012834;28;20532;-76
2022/06/28 09:19:54;;;;;;;6.30;5.70;;;;;;;21.29;78.35;156837.50;5008291;28;20452;-74
2022/06/28 09:22:32;;;;;;;6.80;5.13;;;;;;;21.22;79.18;156820.53;5012712;28;20483;-76
2022/06/28 09:24:59;;;;;;;5.30;4.90;;;;;;;21.04;79.58;156774.81;5009227;28;20442;-76
2022/06/28 09:27:31;;;;;;;6.03;5.43;;;;;;;21.04;80.72;156773.50;4994149;28;20544;-76
2022/06/28 09:29:59;;;;;;;5.90;5.40;;;;;;;21.25;79.75;156828.34;5017434;28;20562;-76
2022/06/28 09:32:28;;;;;;;5.90;5.40;;;;;;;21.45;79.71;156879.22;5011061;28;20459;-76
2022/06/28 09:34:57;;;;;;;5.80;5.20;;;;;;;21.58;77.43;156914.47;5012144;28;20578;-76
2022/06/28 09:37:39;;;;;;;5.97;5.37;;;;;;;21.31;77.01;156842.72;5013118;28;20544;-76
2022/06/28 09:40:14;;;;;;;6.10;5.60;;;;;;;21.51;78.81;156894.91;5013111;28;20413;-76
2022/06/28 09:42:42;;;;;;;5.60;5.10;;;;;;;21.53;78.98;156901.44;5025694;28;20460;-76
2022/06/28 09:45:10;;;;;;;5.90;5.40;;;;;;;21.91;76.89;156999.41;5012543;28;20631;-76
2022/06/28 09:47:42;;;;;;;6.17;5.67;;;;;;;22.08;75.25;157042.53;5011916;28;20536;-76
2022/06/28 09:50:12;;;;;;;5.37;4.87;;;;;;;22.38;77.36;157120.84;5025870;28;21014;-76
2022/06/28 09:52:43;;;;;;;4.90;4.50;;;;;;;22.26;74.52;157089.53;5013349;28;20452;-76
2022/06/28 09:55:11;;;;;;;4.87;4.47;;;;;;;22.22;74.88;157080.38;5009077;28;20465;-76
2022/06/28 09:57:37;;;;;;;4.57;4.27;;;;;;;22.49;73.87;157149.59;5018097;28;20528;-76
2022/06/28 10:00:05;;;;;;;5.27;4.07;;;;;;;22.60;71.24;157178.34;5012672;28;20591;-76
2022/06/28 10:02:40;;;;;;;4.70;4.30;;;;;;;22.83;72.06;157237.16;4995481;28;20499;-76
2022/06/28 10:05:08;;;;;;;4.30;4.00;;;;;;;22.78;70.56;157224.09;4999242;28;20496;-76
2022/06/28 10:07:36;;;;;;;4.93;4.53;;;;;;;22.87;70.84;157248.97;5006841;28;20453;-77
2022/06/28 10:10:05;;;;;;;4.57;4.27;;;;;;;22.56;71.99;157167.88;5012858;28;20445;-76
2022/06/28 10:15:18;;;;;;;4.93;4.53;;;;;;;22.09;73.29;157046.41;5008059;28;20825;-76
2022/06/28 10:17:54;;;;;;;4.67;4.27;;;;;;;21.99;71.70;157019.00;4993965;28;20454;-76
2022/06/28 10:20:24;;;;;;;5.63;3.90;;;;;;;21.85;71.96;156983.69;5021780;28;20468;-75
2022/06/28 10:22:53;;;;;;;4.63;4.23;;;;;;;21.68;73.46;156940.59;5024243;28;21030;-75
2022/06/28 10:25:22;;;;;;;4.80;4.40;;;;;;;21.78;74.47;156965.41;5009895;28;20456;-75
2022/06/28 10:27:51;;;;;;;5.50;4.20;;;;;;;21.69;75.40;156943.22;5012596;28;20433;-75
2022/06/28 10:30:29;;;;;;;4.67;4.27;;;;;;;21.86;75.59;156986.38;5012201;28;20473;-76
2022/06/28 10:32:57;;;;;;;5.57;4.97;;;;;;;21.96;73.85;157011.16;5028172;28;20540;-76
2022/06/28 10:36:03;;;;;;;4.23;3.83;;;;;;;22.09;72.94;157046.41;5005708;28;20693;-75
2022/06/28 10:38:32;;;;;;;5.63;3.43;;;;;;;22.09;73.53;157046.41;5011735;28;20467;-75
2022/06/28 10:41:17;;;;;;;3.30;3.00;;;;;;;22.09;69.83;157045.09;5006250;28;20794;-75
2022/06/28 10:43:46;;;;;;;3.17;2.97;;;;;;;22.05;70.61;157034.69;5009342;28;20496;-76
2022/06/28 10:46:13;;;;;;;3.77;3.47;;;;;;;21.92;70.27;157000.72;5011870;28;20460;-75
2022/06/28 10:49:16;;;;;;;2.80;2.60;;;;;;;21.77;69.92;156962.78;5011956;28;20433;-75
2022/06/28 10:52:13;;;;;;;4.67;4.27;;;;;;;21.79;72.33;156969.31;5011969;28;20729;-75
2022/06/28 10:55:06;;;;;;;3.73;3.37;;;;;;;21.91;72.60;156998.09;5024247;28;20492;-75
2022/06/28 10:57:36;;;;;;;3.80;3.50;;;;;;;21.92;71.76;157000.72;5024697;28;20547;-75
2022/06/28 11:00:06;;;;;;;3.50;3.20;;;;;;;21.92;71.99;157000.72;5026509;28;20466;-75
2022/06/28 11:02:47;;;;;;;5.60;3.80;;;;;;;22.06;73.21;157038.56;5026409;28;20891;-75
2022/06/28 11:05:14;;;;;;;3.83;3.53;;;;;;;22.14;73.10;157058.16;5012179;28;21461;-76
2022/06/28 11:07:41;;;;;;;3.90;3.60;;;;;;;21.97;70.77;157015.09;5027215;28;20934;-75
2022/06/28 11:10:13;;;;;;;3.37;3.00;;;;;;;21.94;71.60;157005.94;5011763;28;20475;-75
2022/06/28 11:12:42;;;;;;;3.30;3.10;;;;;;;21.87;69.91;156987.69;5024293;28;20540;-76
2022/06/28 11:15:10;;;;;;;3.83;3.50;;;;;;;21.80;71.16;156971.94;5009898;28;20591;-75
2022/06/28 11:17:40;;;;;;;5.47;3.73;;;;;;;21.96;71.56;157011.16;5008398;28;20452;-75
2022/06/28 11:20:11;;;;;;;5.57;4.00;;;;;;;21.90;72.19;156995.47;5026972;28;20453;-76
2022/06/28 11:22:41;;;;;;;3.80;3.20;;;;;;;21.81;71.45;156973.25;5011883;28;20453;-77
2022/06/28 11:25:09;;;;;;;3.70;3.40;;;;;;;21.67;71.45;156938.00;5011848;28;20441;-76
2022/06/28 11:27:43;;;;;;;4.40;3.90;;;;;;;21.78;73.12;156965.41;4992579;28;20452;-76
2022/06/28 11:30:10;;;;;;;3.30;3.03;;;;;;;21.74;73.23;156956.25;5009113;28;20457;-75
2022/06/28 11:32:38;;;;;;;3.90;3.60;;;;;;;21.74;74.06;156956.25;5011089;28;20544;-74
2022/06/28 11:35:07;;;;;;;4.00;3.70;;;;;;;21.80;72.96;156971.94;5023208;28;20492;-75
2022/06/28 11:37:47;;;;;;;3.20;3.00;;;;;;;21.89;73.07;156994.19;5005207;28;20511;-74
2022/06/28 11:40:15;;;;;;;3.53;3.23;;;;;;;21.86;72.56;156986.38;5010466;28;20484;-76
2022/06/28 11:42:43;;;;;;;3.67;3.37;;;;;;;22.00;72.02;157021.63;5009494;28;20480;-74
2022/06/28 11:45:11;;;;;;;3.80;3.50;;;;;;;22.07;73.06;157039.88;5005240;28;20491;-74